sensor_id;sensor_type;location;lat;lon;timestamp;P1;durP1;ratioP1;P2;durP2;ratioP2
20146;SDS011;10234;50.856;15.716;2023-07-16T00:01:54;4.28;;;2.25;;
20146;SDS011;10234;50.856;15.716;2023-07-16T00:04:21;3.38;;;2.67;;
20146;SDS011;10234;50.856;15.716;2023-07-16T00:06:48;2.20;;;2.00;;
20146;SDS011;10234;50.856;15.716;2023-07-16T00:09:15;2.53;;;2.33;;
20146;SDS011;10234;50.856;15.716;2023-07-16T00:11:44;2.80;;;2.28;;
20146;SDS011;10234;50.856;15.716;2023-07-16T00:14:11;2.88;;;2.42;;
20146;SDS011;10234;50.856;15.716;2023-07-16T00:16:38;3.55;;;2.45;;
20146;SDS011;10234;50.856;15.716;2023-07-16T00:19:05;2.95;;;2.22;;
20146;SDS011;10234;50.856;15.716;2023-07-16T00:21:32;2.60;;;2.40;;
20146;SDS011;10234;50.856;15.716;2023-07-16T00:24:00;2.67;;;2.33;;
20146;SDS011;10234;50.856;15.716;2023-07-16T00:26:27;2.42;;;2.22;;
20146;SDS011;10234;50.856;15.716;2023-07-16T00:28:55;3.33;;;2.80;;
20146;SDS011;10234;50.856;15.716;2023-07-16T00:31:21;3.15;;;2.55;;
20146;SDS011;10234;50.856;15.716;2023-07-16T00:33:49;2.40;;;2.20;;
20146;SDS011;10234;50.856;15.716;2023-07-16T00:36:16;2.45;;;2.22;;
20146;SDS011;10234;50.856;15.716;2023-07-16T00:38:43;2.60;;;2.40;;
20146;SDS011;10234;50.856;15.716;2023-07-16T00:41:11;2.90;;;2.70;;
20146;SDS011;10234;50.856;15.716;2023-07-16T00:43:38;3.33;;;2.45;;
20146;SDS011;10234;50.856;15.716;2023-07-16T00:46:06;4.53;;;2.33;;
20146;SDS011;10234;50.856;15.716;2023-07-16T00:48:33;2.20;;;2.00;;
20146;SDS011;10234;50.856;15.716;2023-07-16T00:51:01;2.50;;;2.30;;
20146;SDS011;10234;50.856;15.716;2023-07-16T00:53:28;3.20;;;2.47;;
20146;SDS011;10234;50.856;15.716;2023-07-16T00:55:55;4.78;;;2.58;;
20146;SDS011;10234;50.856;15.716;2023-07-16T00:58:23;2.85;;;2.35;;
20146;SDS011;10234;50.856;15.716;2023-07-16T01:00:49;5.00;;;2.47;;
20146;SDS011;10234;50.856;15.716;2023-07-16T01:03:18;6.72;;;2.50;;
20146;SDS011;10234;50.856;15.716;2023-07-16T01:05:45;4.75;;;2.75;;
20146;SDS011;10234;50.856;15.716;2023-07-16T01:08:18;3.00;;;2.70;;
20146;SDS011;10234;50.856;15.716;2023-07-16T01:10:48;6.60;;;2.85;;
20146;SDS011;10234;50.856;15.716;2023-07-16T01:13:16;2.95;;;2.30;;
20146;SDS011;10234;50.856;15.716;2023-07-16T01:15:43;2.97;;;2.47;;
20146;SDS011;10234;50.856;15.716;2023-07-16T01:18:10;2.45;;;2.25;;
20146;SDS011;10234;50.856;15.716;2023-07-16T01:20:38;2.42;;;2.20;;
20146;SDS011;10234;50.856;15.716;2023-07-16T01:23:12;2.33;;;2.13;;
20146;SDS011;10234;50.856;15.716;2023-07-16T01:26:04;3.58;;;2.63;;
20146;SDS011;10234;50.856;15.716;2023-07-16T01:28:39;3.35;;;2.53;;
20146;SDS011;10234;50.856;15.716;2023-07-16T01:31:23;2.38;;;2.17;;
20146;SDS011;10234;50.856;15.716;2023-07-16T01:33:51;3.80;;;2.47;;
20146;SDS011;10234;50.856;15.716;2023-07-16T01:36:20;2.53;;;2.33;;
20146;SDS011;10234;50.856;15.716;2023-07-16T01:38:48;4.38;;;2.40;;
20146;SDS011;10234;50.856;15.716;2023-07-16T01:41:16;2.50;;;2.25;;
20146;SDS011;10234;50.856;15.716;2023-07-16T01:43:43;4.13;;;2.40;;
20146;SDS011;10234;50.856;15.716;2023-07-16T01:46:10;2.30;;;2.05;;
20146;SDS011;10234;50.856;15.716;2023-07-16T01:48:39;2.72;;;2.10;;
20146;SDS011;10234;50.856;15.716;2023-07-16T01:51:06;2.28;;;2.08;;
20146;SDS011;10234;50.856;15.716;2023-07-16T01:53:33;3.10;;;2.78;;
20146;SDS011;10234;50.856;15.716;2023-07-16T01:56:00;3.75;;;2.20;;
20146;SDS011;10234;50.856;15.716;2023-07-16T01:58:27;2.92;;;2.60;;
20146;SDS011;10234;50.856;15.716;2023-07-16T02:00:54;2.65;;;2.45;;
20146;SDS011;10234;50.856;15.716;2023-07-16T02:03:22;3.85;;;2.50;;
20146;SDS011;10234;50.856;15.716;2023-07-16T02:05:50;2.42;;;2.22;;
20146;SDS011;10234;50.856;15.716;2023-07-16T02:08:17;4.78;;;2.20;;
20146;SDS011;10234;50.856;15.716;2023-07-16T02:10:44;6.53;;;2.47;;
20146;SDS011;10234;50.856;15.716;2023-07-16T02:13:13;2.50;;;2.30;;
20146;SDS011;10234;50.856;15.716;2023-07-16T02:15:40;3.72;;;2.55;;
20146;SDS011;10234;50.856;15.716;2023-07-16T02:18:07;2.63;;;2.25;;
20146;SDS011;10234;50.856;15.716;2023-07-16T02:20:34;4.15;;;2.42;;
20146;SDS011;10234;50.856;15.716;2023-07-16T02:23:02;3.38;;;2.30;;
20146;SDS011;10234;50.856;15.716;2023-07-16T02:25:29;2.88;;;2.55;;
20146;SDS011;10234;50.856;15.716;2023-07-16T02:27:56;3.78;;;2.30;;
20146;SDS011;10234;50.856;15.716;2023-07-16T02:30:23;2.90;;;2.67;;
20146;SDS011;10234;50.856;15.716;2023-07-16T02:32:50;2.30;;;2.10;;
20146;SDS011;10234;50.856;15.716;2023-07-16T02:35:17;5.82;;;2.67;;
20146;SDS011;10234;50.856;15.716;2023-07-16T02:37:45;2.30;;;2.10;;
20146;SDS011;10234;50.856;15.716;2023-07-16T02:40:13;4.05;;;2.33;;
20146;SDS011;10234;50.856;15.716;2023-07-16T02:42:40;3.72;;;2.67;;
20146;SDS011;10234;50.856;15.716;2023-07-16T02:45:08;5.25;;;2.28;;
20146;SDS011;10234;50.856;15.716;2023-07-16T02:47:35;3.42;;;2.15;;
20146;SDS011;10234;50.856;15.716;2023-07-16T02:50:02;3.00;;;2.50;;
20146;SDS011;10234;50.856;15.716;2023-07-16T02:52:29;6.80;;;2.08;;
20146;SDS011;10234;50.856;15.716;2023-07-16T02:54:56;3.17;;;2.05;;
20146;SDS011;10234;50.856;15.716;2023-07-16T02:57:24;5.32;;;2.17;;
20146;SDS011;10234;50.856;15.716;2023-07-16T02:59:51;4.88;;;2.70;;
20146;SDS011;10234;50.856;15.716;2023-07-16T03:02:18;3.80;;;2.15;;
20146;SDS011;10234;50.856;15.716;2023-07-16T03:04:45;2.05;;;1.77;;
20146;SDS011;10234;50.856;15.716;2023-07-16T03:07:12;3.22;;;1.75;;
20146;SDS011;10234;50.856;15.716;2023-07-16T03:09:39;4.10;;;2.10;;
20146;SDS011;10234;50.856;15.716;2023-07-16T03:12:07;3.15;;;2.05;;
20146;SDS011;10234;50.856;15.716;2023-07-16T03:14:35;3.45;;;1.90;;
20146;SDS011;10234;50.856;15.716;2023-07-16T03:17:02;1.80;;;1.60;;
20146;SDS011;10234;50.856;15.716;2023-07-16T03:19:31;3.35;;;2.10;;
20146;SDS011;10234;50.856;15.716;2023-07-16T03:21:58;3.20;;;1.92;;
20146;SDS011;10234;50.856;15.716;2023-07-16T03:24:25;4.20;;;1.95;;
20146;SDS011;10234;50.856;15.716;2023-07-16T03:26:52;4.05;;;1.85;;
20146;SDS011;10234;50.856;15.716;2023-07-16T03:29:19;4.82;;;2.55;;
20146;SDS011;10234;50.856;15.716;2023-07-16T03:31:47;3.47;;;2.20;;
20146;SDS011;10234;50.856;15.716;2023-07-16T03:34:14;2.13;;;1.92;;
20146;SDS011;10234;50.856;15.716;2023-07-16T03:36:41;2.35;;;1.63;;
20146;SDS011;10234;50.856;15.716;2023-07-16T03:39:08;2.33;;;1.90;;
20146;SDS011;10234;50.856;15.716;2023-07-16T03:41:36;3.30;;;1.95;;
20146;SDS011;10234;50.856;15.716;2023-07-16T03:44:03;4.25;;;2.10;;
20146;SDS011;10234;50.856;15.716;2023-07-16T03:46:30;4.15;;;1.90;;
20146;SDS011;10234;50.856;15.716;2023-07-16T03:48:58;2.13;;;1.77;;
20146;SDS011;10234;50.856;15.716;2023-07-16T03:51:25;2.92;;;1.95;;
20146;SDS011;10234;50.856;15.716;2023-07-16T03:53:52;2.00;;;1.80;;
20146;SDS011;10234;50.856;15.716;2023-07-16T03:56:19;3.35;;;1.83;;
20146;SDS011;10234;50.856;15.716;2023-07-16T03:58:46;1.65;;;1.55;;
20146;SDS011;10234;50.856;15.716;2023-07-16T04:01:14;3.33;;;1.95;;
20146;SDS011;10234;50.856;15.716;2023-07-16T04:03:41;3.22;;;1.95;;
20146;SDS011;10234;50.856;15.716;2023-07-16T04:06:09;1.88;;;1.58;;
20146;SDS011;10234;50.856;15.716;2023-07-16T04:08:36;2.88;;;1.90;;
20146;SDS011;10234;50.856;15.716;2023-07-16T04:11:04;2.92;;;1.45;;
20146;SDS011;10234;50.856;15.716;2023-07-16T04:13:31;2.88;;;1.65;;
20146;SDS011;10234;50.856;15.716;2023-07-16T04:15:59;2.13;;;1.88;;
20146;SDS011;10234;50.856;15.716;2023-07-16T04:18:26;2.15;;;1.95;;
20146;SDS011;10234;50.856;15.716;2023-07-16T04:20:53;4.63;;;1.83;;
20146;SDS011;10234;50.856;15.716;2023-07-16T04:23:22;1.90;;;1.77;;
20146;SDS011;10234;50.856;15.716;2023-07-16T04:25:50;1.92;;;1.75;;
20146;SDS011;10234;50.856;15.716;2023-07-16T04:28:19;1.65;;;1.55;;
20146;SDS011;10234;50.856;15.716;2023-07-16T04:30:46;2.88;;;1.60;;
20146;SDS011;10234;50.856;15.716;2023-07-16T04:33:13;3.47;;;2.30;;
20146;SDS011;10234;50.856;15.716;2023-07-16T04:35:40;1.90;;;1.80;;
20146;SDS011;10234;50.856;15.716;2023-07-16T04:38:07;1.80;;;1.70;;
20146;SDS011;10234;50.856;15.716;2023-07-16T04:40:36;1.80;;;1.70;;
20146;SDS011;10234;50.856;15.716;2023-07-16T04:43:03;2.90;;;1.83;;
20146;SDS011;10234;50.856;15.716;2023-07-16T04:45:30;3.15;;;2.00;;
20146;SDS011;10234;50.856;15.716;2023-07-16T04:47:57;1.95;;;1.70;;
20146;SDS011;10234;50.856;15.716;2023-07-16T04:50:25;1.55;;;1.45;;
20146;SDS011;10234;50.856;15.716;2023-07-16T04:52:52;1.67;;;1.58;;
20146;SDS011;10234;50.856;15.716;2023-07-16T04:55:19;1.98;;;1.40;;
20146;SDS011;10234;50.856;15.716;2023-07-16T04:57:47;2.00;;;1.38;;
20146;SDS011;10234;50.856;15.716;2023-07-16T05:00:14;1.77;;;1.60;;
20146;SDS011;10234;50.856;15.716;2023-07-16T05:02:41;2.78;;;1.45;;
20146;SDS011;10234;50.856;15.716;2023-07-16T05:05:08;3.75;;;1.60;;
20146;SDS011;10234;50.856;15.716;2023-07-16T05:07:35;1.30;;;1.20;;
20146;SDS011;10234;50.856;15.716;2023-07-16T05:10:03;1.27;;;1.02;;
20146;SDS011;10234;50.856;15.716;2023-07-16T05:12:30;1.17;;;1.08;;
20146;SDS011;10234;50.856;15.716;2023-07-16T05:14:59;1.20;;;1.20;;
20146;SDS011;10234;50.856;15.716;2023-07-16T05:17:25;2.85;;;1.02;;
20146;SDS011;10234;50.856;15.716;2023-07-16T05:19:52;0.90;;;0.90;;
20146;SDS011;10234;50.856;15.716;2023-07-16T05:22:19;0.85;;;0.85;;
20146;SDS011;10234;50.856;15.716;2023-07-16T05:24:47;0.80;;;0.80;;
20146;SDS011;10234;50.856;15.716;2023-07-16T05:27:13;0.95;;;0.88;;
20146;SDS011;10234;50.856;15.716;2023-07-16T05:29:40;1.10;;;0.90;;
20146;SDS011;10234;50.856;15.716;2023-07-16T05:32:09;2.22;;;0.90;;
20146;SDS011;10234;50.856;15.716;2023-07-16T05:34:36;1.77;;;0.68;;
20146;SDS011;10234;50.856;15.716;2023-07-16T05:37:03;0.70;;;0.70;;
20146;SDS011;10234;50.856;15.716;2023-07-16T05:39:30;1.23;;;0.60;;
20146;SDS011;10234;50.856;15.716;2023-07-16T05:41:57;0.82;;;0.82;;
20146;SDS011;10234;50.856;15.716;2023-07-16T05:44:27;0.93;;;0.88;;
20146;SDS011;10234;50.856;15.716;2023-07-16T05:46:54;0.60;;;0.60;;
20146;SDS011;10234;50.856;15.716;2023-07-16T05:49:22;2.25;;;0.70;;
20146;SDS011;10234;50.856;15.716;2023-07-16T05:51:50;2.15;;;0.90;;
20146;SDS011;10234;50.856;15.716;2023-07-16T05:54:17;1.55;;;0.73;;
20146;SDS011;10234;50.856;15.716;2023-07-16T05:56:45;0.60;;;0.60;;
20146;SDS011;10234;50.856;15.716;2023-07-16T05:59:12;0.60;;;0.60;;
20146;SDS011;10234;50.856;15.716;2023-07-16T06:01:39;1.50;;;0.70;;
20146;SDS011;10234;50.856;15.716;2023-07-16T06:04:06;1.67;;;0.70;;
20146;SDS011;10234;50.856;15.716;2023-07-16T06:06:34;0.73;;;0.70;;
20146;SDS011;10234;50.856;15.716;2023-07-16T06:09:01;1.00;;;0.80;;
20146;SDS011;10234;50.856;15.716;2023-07-16T06:11:28;0.90;;;0.80;;
20146;SDS011;10234;50.856;15.716;2023-07-16T06:13:55;0.60;;;0.60;;
20146;SDS011;10234;50.856;15.716;2023-07-16T06:16:22;1.15;;;0.68;;
20146;SDS011;10234;50.856;15.716;2023-07-16T06:18:50;2.55;;;0.85;;
20146;SDS011;10234;50.856;15.716;2023-07-16T06:21:16;0.63;;;0.63;;
20146;SDS011;10234;50.856;15.716;2023-07-16T06:23:45;1.08;;;0.88;;
20146;SDS011;10234;50.856;15.716;2023-07-16T06:26:12;0.73;;;0.70;;
20146;SDS011;10234;50.856;15.716;2023-07-16T06:28:39;0.70;;;0.70;;
20146;SDS011;10234;50.856;15.716;2023-07-16T06:31:06;0.70;;;0.70;;
20146;SDS011;10234;50.856;15.716;2023-07-16T06:33:33;0.60;;;0.60;;
20146;SDS011;10234;50.856;15.716;2023-07-16T06:36:00;0.60;;;0.60;;
20146;SDS011;10234;50.856;15.716;2023-07-16T06:38:27;0.60;;;0.60;;
20146;SDS011;10234;50.856;15.716;2023-07-16T06:40:56;0.60;;;0.60;;
20146;SDS011;10234;50.856;15.716;2023-07-16T06:43:23;0.80;;;0.80;;
20146;SDS011;10234;50.856;15.716;2023-07-16T06:45:50;0.88;;;0.88;;
20146;SDS011;10234;50.856;15.716;2023-07-16T06:48:17;0.73;;;0.73;;
20146;SDS011;10234;50.856;15.716;2023-07-16T06:50:44;0.70;;;0.70;;
20146;SDS011;10234;50.856;15.716;2023-07-16T06:53:11;0.95;;;0.70;;
20146;SDS011;10234;50.856;15.716;2023-07-16T06:55:39;2.75;;;0.75;;
20146;SDS011;10234;50.856;15.716;2023-07-16T06:58:09;1.25;;;0.90;;
20146;SDS011;10234;50.856;15.716;2023-07-16T07:00:36;0.80;;;0.80;;
20146;SDS011;10234;50.856;15.716;2023-07-16T07:03:03;1.20;;;1.05;;
20146;SDS011;10234;50.856;15.716;2023-07-16T07:05:31;1.63;;;0.70;;
20146;SDS011;10234;50.856;15.716;2023-07-16T07:07:58;0.80;;;0.80;;
20146;SDS011;10234;50.856;15.716;2023-07-16T07:10:25;0.98;;;0.88;;
20146;SDS011;10234;50.856;15.716;2023-07-16T07:12:52;0.80;;;0.80;;
20146;SDS011;10234;50.856;15.716;2023-07-16T07:15:20;1.48;;;0.77;;
20146;SDS011;10234;50.856;15.716;2023-07-16T07:17:47;0.90;;;0.90;;
20146;SDS011;10234;50.856;15.716;2023-07-16T07:20:17;0.95;;;0.95;;
20146;SDS011;10234;50.856;15.716;2023-07-16T07:22:44;0.80;;;0.70;;
20146;SDS011;10234;50.856;15.716;2023-07-16T07:25:11;1.23;;;0.90;;
20146;SDS011;10234;50.856;15.716;2023-07-16T07:27:38;1.33;;;0.85;;
20146;SDS011;10234;50.856;15.716;2023-07-16T07:30:06;1.60;;;1.10;;
20146;SDS011;10234;50.856;15.716;2023-07-16T07:32:36;1.17;;;1.08;;
20146;SDS011;10234;50.856;15.716;2023-07-16T07:35:03;1.48;;;1.27;;
20146;SDS011;10234;50.856;15.716;2023-07-16T07:37:31;0.93;;;0.82;;
20146;SDS011;10234;50.856;15.716;2023-07-16T07:39:58;1.40;;;1.20;;
20146;SDS011;10234;50.856;15.716;2023-07-16T07:42:25;0.80;;;0.80;;
20146;SDS011;10234;50.856;15.716;2023-07-16T07:44:53;0.85;;;0.82;;
20146;SDS011;10234;50.856;15.716;2023-07-16T07:47:20;1.17;;;0.93;;
20146;SDS011;10234;50.856;15.716;2023-07-16T07:49:48;1.45;;;1.10;;
20146;SDS011;10234;50.856;15.716;2023-07-16T07:52:17;0.80;;;0.80;;
20146;SDS011;10234;50.856;15.716;2023-07-16T07:54:44;1.20;;;0.80;;
20146;SDS011;10234;50.856;15.716;2023-07-16T07:57:11;1.35;;;1.10;;
20146;SDS011;10234;50.856;15.716;2023-07-16T07:59:38;1.42;;;0.80;;
20146;SDS011;10234;50.856;15.716;2023-07-16T08:02:05;1.38;;;1.05;;
20146;SDS011;10234;50.856;15.716;2023-07-16T08:04:32;1.38;;;1.10;;
20146;SDS011;10234;50.856;15.716;2023-07-16T08:07:01;1.50;;;0.90;;
20146;SDS011;10234;50.856;15.716;2023-07-16T08:09:28;1.30;;;1.20;;
20146;SDS011;10234;50.856;15.716;2023-07-16T08:11:55;1.30;;;1.20;;
20146;SDS011;10234;50.856;15.716;2023-07-16T08:14:22;1.80;;;1.20;;
20146;SDS011;10234;50.856;15.716;2023-07-16T08:16:49;1.35;;;1.23;;
20146;SDS011;10234;50.856;15.716;2023-07-16T08:19:16;1.80;;;1.30;;
20146;SDS011;10234;50.856;15.716;2023-07-16T08:21:43;1.30;;;1.13;;
20146;SDS011;10234;50.856;15.716;2023-07-16T08:24:12;1.42;;;1.33;;
20146;SDS011;10234;50.856;15.716;2023-07-16T08:26:38;1.23;;;1.13;;
20146;SDS011;10234;50.856;15.716;2023-07-16T08:29:05;1.02;;;0.93;;
20146;SDS011;10234;50.856;15.716;2023-07-16T08:31:32;1.17;;;1.17;;
20146;SDS011;10234;50.856;15.716;2023-07-16T08:34:00;0.82;;;0.82;;
20146;SDS011;10234;50.856;15.716;2023-07-16T08:36:27;1.45;;;1.30;;
20146;SDS011;10234;50.856;15.716;2023-07-16T08:38:54;1.15;;;1.05;;
20146;SDS011;10234;50.856;15.716;2023-07-16T08:41:22;1.30;;;1.20;;
20146;SDS011;10234;50.856;15.716;2023-07-16T08:43:49;1.58;;;1.30;;
20146;SDS011;10234;50.856;15.716;2023-07-16T08:46:17;1.75;;;1.35;;
20146;SDS011;10234;50.856;15.716;2023-07-16T08:48:44;1.20;;;1.10;;
20146;SDS011;10234;50.856;15.716;2023-07-16T08:51:12;2.45;;;1.20;;
20146;SDS011;10234;50.856;15.716;2023-07-16T08:53:41;2.15;;;1.00;;
20146;SDS011;10234;50.856;15.716;2023-07-16T08:56:08;2.38;;;1.02;;
20146;SDS011;10234;50.856;15.716;2023-07-16T08:58:36;1.20;;;1.10;;
20146;SDS011;10234;50.856;15.716;2023-07-16T09:01:04;0.95;;;0.85;;
20146;SDS011;10234;50.856;15.716;2023-07-16T09:03:32;1.13;;;1.02;;
20146;SDS011;10234;50.856;15.716;2023-07-16T09:05:59;1.60;;;1.20;;
20146;SDS011;10234;50.856;15.716;2023-07-16T09:08:26;1.40;;;0.90;;
20146;SDS011;10234;50.856;15.716;2023-07-16T09:10:54;1.65;;;1.33;;
20146;SDS011;10234;50.856;15.716;2023-07-16T09:13:22;1.20;;;1.10;;
20146;SDS011;10234;50.856;15.716;2023-07-16T09:15:54;1.23;;;1.05;;
20146;SDS011;10234;50.856;15.716;2023-07-16T09:18:21;1.33;;;1.20;;
20146;SDS011;10234;50.856;15.716;2023-07-16T09:20:53;1.00;;;0.90;;
20146;SDS011;10234;50.856;15.716;2023-07-16T09:23:23;1.30;;;1.20;;
20146;SDS011;10234;50.856;15.716;2023-07-16T09:25:51;2.83;;;0.80;;
20146;SDS011;10234;50.856;15.716;2023-07-16T09:28:18;0.70;;;0.70;;
20146;SDS011;10234;50.856;15.716;2023-07-16T09:30:45;0.70;;;0.70;;
20146;SDS011;10234;50.856;15.716;2023-07-16T09:33:15;1.08;;;0.90;;
20146;SDS011;10234;50.856;15.716;2023-07-16T09:35:42;0.70;;;0.70;;
20146;SDS011;10234;50.856;15.716;2023-07-16T09:38:10;1.38;;;0.80;;
20146;SDS011;10234;50.856;15.716;2023-07-16T09:40:37;1.00;;;0.90;;
20146;SDS011;10234;50.856;15.716;2023-07-16T09:43:05;0.68;;;0.68;;
20146;SDS011;10234;50.856;15.716;2023-07-16T09:45:33;0.77;;;0.77;;
20146;SDS011;10234;50.856;15.716;2023-07-16T09:48:00;0.95;;;0.80;;
20146;SDS011;10234;50.856;15.716;2023-07-16T09:50:29;0.60;;;0.60;;
20146;SDS011;10234;50.856;15.716;2023-07-16T09:52:58;1.17;;;0.95;;
20146;SDS011;10234;50.856;15.716;2023-07-16T09:55:25;0.80;;;0.80;;
20146;SDS011;10234;50.856;15.716;2023-07-16T09:57:53;1.20;;;0.88;;
20146;SDS011;10234;50.856;15.716;2023-07-16T10:00:23;0.70;;;0.70;;
20146;SDS011;10234;50.856;15.716;2023-07-16T10:02:51;0.90;;;0.90;;
20146;SDS011;10234;50.856;15.716;2023-07-16T10:05:18;0.90;;;0.70;;
20146;SDS011;10234;50.856;15.716;2023-07-16T10:07:52;0.65;;;0.65;;
20146;SDS011;10234;50.856;15.716;2023-07-16T10:10:25;0.70;;;0.70;;
20146;SDS011;10234;50.856;15.716;2023-07-16T10:12:55;1.60;;;0.90;;
20146;SDS011;10234;50.856;15.716;2023-07-16T10:15:26;1.10;;;1.00;;
20146;SDS011;10234;50.856;15.716;2023-07-16T10:17:53;1.20;;;1.10;;
20146;SDS011;10234;50.856;15.716;2023-07-16T10:20:30;0.93;;;0.93;;
20146;SDS011;10234;50.856;15.716;2023-07-16T10:23:09;2.15;;;0.90;;
20146;SDS011;10234;50.856;15.716;2023-07-16T10:25:38;0.70;;;0.70;;
20146;SDS011;10234;50.856;15.716;2023-07-16T10:28:05;1.20;;;0.80;;
20146;SDS011;10234;50.856;15.716;2023-07-16T10:30:32;2.13;;;0.80;;
20146;SDS011;10234;50.856;15.716;2023-07-16T10:33:02;1.33;;;0.95;;
20146;SDS011;10234;50.856;15.716;2023-07-16T10:35:31;0.80;;;0.80;;
20146;SDS011;10234;50.856;15.716;2023-07-16T10:38:01;0.75;;;0.75;;
20146;SDS011;10234;50.856;15.716;2023-07-16T10:40:28;0.85;;;0.80;;
20146;SDS011;10234;50.856;15.716;2023-07-16T10:42:55;1.13;;;0.73;;
20146;SDS011;10234;50.856;15.716;2023-07-16T10:45:22;0.60;;;0.60;;
20146;SDS011;10234;50.856;15.716;2023-07-16T10:47:53;0.98;;;0.95;;
20146;SDS011;10234;50.856;15.716;2023-07-16T10:50:20;0.90;;;0.80;;
20146;SDS011;10234;50.856;15.716;2023-07-16T10:52:50;0.90;;;0.90;;
20146;SDS011;10234;50.856;15.716;2023-07-16T10:55:19;0.80;;;0.80;;
20146;SDS011;10234;50.856;15.716;2023-07-16T10:57:46;2.25;;;0.80;;
20146;SDS011;10234;50.856;15.716;2023-07-16T11:00:14;0.80;;;0.80;;
20146;SDS011;10234;50.856;15.716;2023-07-16T11:02:42;1.27;;;1.05;;
20146;SDS011;10234;50.856;15.716;2023-07-16T11:05:09;0.60;;;0.60;;
20146;SDS011;10234;50.856;15.716;2023-07-16T11:07:36;1.13;;;0.90;;
20146;SDS011;10234;50.856;15.716;2023-07-16T11:10:04;0.95;;;0.95;;
20146;SDS011;10234;50.856;15.716;2023-07-16T11:12:33;1.27;;;1.17;;
20146;SDS011;10234;50.856;15.716;2023-07-16T11:15:00;1.35;;;1.10;;
20146;SDS011;10234;50.856;15.716;2023-07-16T11:17:27;1.00;;;1.00;;
20146;SDS011;10234;50.856;15.716;2023-07-16T11:19:54;0.93;;;0.90;;
20146;SDS011;10234;50.856;15.716;2023-07-16T11:22:24;0.80;;;0.80;;
20146;SDS011;10234;50.856;15.716;2023-07-16T11:24:51;1.13;;;1.00;;
20146;SDS011;10234;50.856;15.716;2023-07-16T11:27:20;0.80;;;0.80;;
20146;SDS011;10234;50.856;15.716;2023-07-16T11:29:50;0.70;;;0.70;;
20146;SDS011;10234;50.856;15.716;2023-07-16T11:32:27;1.40;;;1.00;;
20146;SDS011;10234;50.856;15.716;2023-07-16T11:34:56;1.10;;;1.00;;
20146;SDS011;10234;50.856;15.716;2023-07-16T11:37:24;0.77;;;0.77;;
20146;SDS011;10234;50.856;15.716;2023-07-16T11:39:54;0.90;;;0.90;;
20146;SDS011;10234;50.856;15.716;2023-07-16T11:42:27;2.17;;;1.05;;
20146;SDS011;10234;50.856;15.716;2023-07-16T11:44:56;1.30;;;1.17;;
20146;SDS011;10234;50.856;15.716;2023-07-16T11:47:23;1.20;;;1.05;;
20146;SDS011;10234;50.856;15.716;2023-07-16T11:49:50;1.30;;;1.20;;
20146;SDS011;10234;50.856;15.716;2023-07-16T11:52:21;1.95;;;1.38;;
20146;SDS011;10234;50.856;15.716;2023-07-16T11:54:51;1.17;;;1.10;;
20146;SDS011;10234;50.856;15.716;2023-07-16T11:57:18;0.98;;;0.98;;
20146;SDS011;10234;50.856;15.716;2023-07-16T11:59:45;1.25;;;1.15;;
20146;SDS011;10234;50.856;15.716;2023-07-16T12:02:14;1.55;;;1.00;;
20146;SDS011;10234;50.856;15.716;2023-07-16T12:04:41;1.20;;;1.10;;
20146;SDS011;10234;50.856;15.716;2023-07-16T12:07:08;1.40;;;1.30;;
20146;SDS011;10234;50.856;15.716;2023-07-16T12:09:35;1.00;;;1.00;;
20146;SDS011;10234;50.856;15.716;2023-07-16T12:12:02;1.40;;;1.30;;
20146;SDS011;10234;50.856;15.716;2023-07-16T12:14:30;3.92;;;1.58;;
20146;SDS011;10234;50.856;15.716;2023-07-16T12:16:57;1.33;;;1.23;;
20146;SDS011;10234;50.856;15.716;2023-07-16T12:19:25;1.20;;;1.10;;
20146;SDS011;10234;50.856;15.716;2023-07-16T12:21:52;2.22;;;0.93;;
20146;SDS011;10234;50.856;15.716;2023-07-16T12:24:19;1.10;;;1.05;;
20146;SDS011;10234;50.856;15.716;2023-07-16T12:26:47;1.45;;;1.35;;
20146;SDS011;10234;50.856;15.716;2023-07-16T12:29:14;1.27;;;1.17;;
20146;SDS011;10234;50.856;15.716;2023-07-16T12:31:41;1.58;;;1.48;;
20146;SDS011;10234;50.856;15.716;2023-07-16T12:34:08;1.30;;;1.20;;
20146;SDS011;10234;50.856;15.716;2023-07-16T12:36:36;1.00;;;1.00;;
20146;SDS011;10234;50.856;15.716;2023-07-16T12:39:02;1.02;;;0.98;;
20146;SDS011;10234;50.856;15.716;2023-07-16T12:41:29;1.30;;;1.20;;
20146;SDS011;10234;50.856;15.716;2023-07-16T12:43:56;1.35;;;1.27;;
20146;SDS011;10234;50.856;15.716;2023-07-16T12:46:23;1.30;;;1.20;;
20146;SDS011;10234;50.856;15.716;2023-07-16T12:48:50;1.52;;;1.42;;
20146;SDS011;10234;50.856;15.716;2023-07-16T12:51:18;1.50;;;1.40;;
20146;SDS011;10234;50.856;15.716;2023-07-16T12:53:46;1.23;;;1.13;;
20146;SDS011;10234;50.856;15.716;2023-07-16T12:56:13;1.70;;;1.50;;
20146;SDS011;10234;50.856;15.716;2023-07-16T12:58:40;1.30;;;1.20;;
20146;SDS011;10234;50.856;15.716;2023-07-16T13:01:07;1.42;;;1.33;;
20146;SDS011;10234;50.856;15.716;2023-07-16T13:03:34;1.20;;;1.20;;
20146;SDS011;10234;50.856;15.716;2023-07-16T13:06:01;1.08;;;1.08;;
20146;SDS011;10234;50.856;15.716;2023-07-16T13:08:29;1.40;;;1.30;;
20146;SDS011;10234;50.856;15.716;2023-07-16T13:10:58;1.55;;;1.40;;
20146;SDS011;10234;50.856;15.716;2023-07-16T13:13:25;1.42;;;1.33;;
20146;SDS011;10234;50.856;15.716;2023-07-16T13:15:52;1.52;;;1.42;;
20146;SDS011;10234;50.856;15.716;2023-07-16T13:18:19;1.80;;;1.70;;
20146;SDS011;10234;50.856;15.716;2023-07-16T13:20:46;1.60;;;1.50;;
20146;SDS011;10234;50.856;15.716;2023-07-16T13:23:13;1.50;;;1.40;;
20146;SDS011;10234;50.856;15.716;2023-07-16T13:25:40;1.70;;;1.55;;
20146;SDS011;10234;50.856;15.716;2023-07-16T13:28:09;1.60;;;1.50;;
20146;SDS011;10234;50.856;15.716;2023-07-16T13:30:36;1.92;;;1.65;;
20146;SDS011;10234;50.856;15.716;2023-07-16T13:33:03;1.85;;;1.60;;
20146;SDS011;10234;50.856;15.716;2023-07-16T13:35:30;2.25;;;1.50;;
20146;SDS011;10234;50.856;15.716;2023-07-16T13:37:57;1.50;;;1.40;;
20146;SDS011;10234;50.856;15.716;2023-07-16T13:40:24;1.63;;;1.52;;
20146;SDS011;10234;50.856;15.716;2023-07-16T13:42:51;3.35;;;1.35;;
20146;SDS011;10234;50.856;15.716;2023-07-16T13:45:20;2.90;;;2.00;;
20146;SDS011;10234;50.856;15.716;2023-07-16T13:47:48;1.38;;;1.20;;
20146;SDS011;10234;50.856;15.716;2023-07-16T13:50:16;1.52;;;1.42;;
20146;SDS011;10234;50.856;15.716;2023-07-16T13:52:43;1.20;;;1.00;;
20146;SDS011;10234;50.856;15.716;2023-07-16T13:55:11;1.60;;;1.50;;
20146;SDS011;10234;50.856;15.716;2023-07-16T13:57:38;2.05;;;1.30;;
20146;SDS011;10234;50.856;15.716;2023-07-16T14:00:06;1.88;;;1.77;;
20146;SDS011;10234;50.856;15.716;2023-07-16T14:02:36;1.45;;;1.15;;
20146;SDS011;10234;50.856;15.716;2023-07-16T14:05:03;1.20;;;1.17;;
20146;SDS011;10234;50.856;15.716;2023-07-16T14:07:30;1.40;;;1.30;;
20146;SDS011;10234;50.856;15.716;2023-07-16T14:09:57;2.45;;;1.20;;
20146;SDS011;10234;50.856;15.716;2023-07-16T14:12:24;1.40;;;1.30;;
20146;SDS011;10234;50.856;15.716;2023-07-16T14:14:51;1.20;;;1.10;;
20146;SDS011;10234;50.856;15.716;2023-07-16T14:17:19;1.58;;;1.05;;
20146;SDS011;10234;50.856;15.716;2023-07-16T14:19:47;0.98;;;0.95;;
20146;SDS011;10234;50.856;15.716;2023-07-16T14:22:14;1.50;;;1.20;;
20146;SDS011;10234;50.856;15.716;2023-07-16T14:24:42;1.02;;;1.00;;
20146;SDS011;10234;50.856;15.716;2023-07-16T14:27:09;1.80;;;1.52;;
20146;SDS011;10234;50.856;15.716;2023-07-16T14:29:37;1.40;;;1.30;;
20146;SDS011;10234;50.856;15.716;2023-07-16T14:32:05;1.75;;;1.13;;
20146;SDS011;10234;50.856;15.716;2023-07-16T14:34:32;0.90;;;0.90;;
20146;SDS011;10234;50.856;15.716;2023-07-16T14:37:00;1.88;;;1.17;;